Time;durP1;ratioP1;P1;durP2;ratioP2;P2;SDS_P1;SDS_P2;PMS_P1;PMS_P2;Temp;Humidity;BMP_temperature;BMP_pressure;BME280_temperature;BME280_humidity;BME280_pressure;Samples;Min_cycle;Max_cycle;Signal;HPM_P1;HPM_P2
2023/05/30 00:01:37;;;;;;;13.32;2.72;;;;;;;9.44;76.16;102537.03;5009298;28;20053;-69
2023/05/30 00:04:03;;;;;;;10.18;2.45;;;;;;;9.41;76.68;102525.41;5009245;28;20052;-69
2023/05/30 00:06:28;;;;;;;12.95;3.30;;;;;;;9.36;76.90;102536.47;5009114;28;20041;-68
2023/05/30 00:08:54;;;;;;;14.38;2.90;;;;;;;9.31;77.07;102538.47;5009272;28;20447;-69
2023/05/30 00:11:20;;;;;;;11.43;2.97;;;;;;;9.30;77.81;102542.16;5008730;28;20431;-69
2023/05/30 00:13:45;;;;;;;14.30;2.88;;;;;;;9.27;77.43;102544.97;5018809;28;20091;-69
2023/05/30 00:16:11;;;;;;;9.50;2.63;;;;;;;9.23;78.56;102548.75;5027371;28;20020;-69
2023/05/30 00:18:38;;;;;;;11.55;2.70;;;;;;;9.18;77.32;102542.63;5029080;28;20120;-69
2023/05/30 00:21:08;;;;;;;17.95;2.95;;;;;;;9.20;78.03;102546.19;5008860;28;20042;-68
2023/05/30 00:23:35;;;;;;;15.25;2.45;;;;;;;9.15;78.89;102540.03;5008960;28;20040;-69
2023/05/30 00:26:01;;;;;;;10.73;2.30;;;;;;;9.10;79.03;102534.78;5009921;28;20474;-69
2023/05/30 00:28:27;;;;;;;16.38;2.65;;;;;;;9.11;78.79;102542.00;5008148;28;20021;-69
2023/05/30 00:30:53;;;;;;;16.95;2.88;;;;;;;9.07;79.86;102543.06;5006556;28;20152;-70
2023/05/30 00:33:18;;;;;;;21.00;3.17;;;;;;;9.05;79.92;102546.78;5008844;28;20033;-68
2023/05/30 00:35:47;;;;;;;13.20;3.50;;;;;;;9.00;80.10;102541.53;5007534;28;20406;-68
2023/05/30 00:38:12;;;;;;;20.80;3.38;;;;;;;8.98;80.13;102546.13;5025527;28;20046;-69
2023/05/30 00:40:37;;;;;;;11.18;2.80;;;;;;;8.98;80.43;102559.69;5016286;28;20274;-69
2023/05/30 00:43:03;;;;;;;14.07;2.72;;;;;;;8.97;80.77;102546.19;5007715;28;20449;-69
2023/05/30 00:45:29;;;;;;;13.38;3.03;;;;;;;8.95;79.16;102546.22;5008541;28;20042;-69
2023/05/30 00:47:54;;;;;;;18.30;3.20;;;;;;;8.97;79.59;102552.50;5007452;28;20033;-69
2023/05/30 00:50:20;;;;;;;11.30;2.58;;;;;;;9.00;79.21;102546.03;5017190;28;20121;-69
2023/05/30 00:52:47;;;;;;;18.45;3.65;;;;;;;8.97;80.46;102549.78;5008704;28;20473;-69
2023/05/30 00:55:13;;;;;;;7.72;2.42;;;;;;;8.98;79.70;102556.09;5010847;28;20100;-68
2023/05/30 00:57:40;;;;;;;8.40;2.80;;;;;;;8.95;80.49;102557.09;5012526;28;20053;-69
2023/05/30 01:00:10;;;;;;;13.75;3.05;;;;;;;8.94;79.43;102558.03;5011047;28;20429;-69
2023/05/30 01:02:36;;;;;;;10.50;3.05;;;;;;;8.97;79.09;102563.34;5011454;28;20449;-69
2023/05/30 01:05:02;;;;;;;11.35;2.80;;;;;;;8.99;80.14;102561.44;5011292;28;20022;-69
2023/05/30 01:07:29;;;;;;;18.45;3.25;;;;;;;8.90;80.00;102553.66;5012344;28;20112;-69
2023/05/30 01:09:55;;;;;;;12.93;3.25;;;;;;;8.92;80.79;102557.22;4996268;28;20017;-69
2023/05/30 01:12:37;;;;;;;15.77;2.80;;;;;;;8.89;80.10;102552.78;5027126;28;20443;-69
2023/05/30 01:15:18;;;;;;;9.48;3.08;;;;;;;8.88;79.63;102552.84;5030837;28;20292;-69
2023/05/30 01:18:11;;;;;;;13.07;3.17;;;;;;;8.83;80.24;102553.03;5031365;28;20045;-69
2023/05/30 01:20:40;;;;;;;9.68;2.88;;;;;;;8.80;81.47;102552.25;5026176;28;20055;-69
2023/05/30 01:23:21;;;;;;;11.93;3.28;;;;;;;8.80;80.78;102561.25;5011803;28;20026;-69
2023/05/30 01:26:04;;;;;;;22.48;3.58;;;;;;;8.76;81.56;102551.47;5012453;28;20029;-69
2023/05/30 01:28:34;;;;;;;16.10;3.35;;;;;;;8.74;81.50;102558.78;5011866;28;20110;-69
2023/05/30 01:31:00;;;;;;;22.55;3.22;;;;;;;8.71;82.45;102558.00;5012156;28;20358;-69
2023/05/30 01:33:27;;;;;;;16.60;3.05;;;;;;;8.68;82.16;102551.78;5024977;28;20124;-69
2023/05/30 01:35:53;;;;;;;13.52;3.58;;;;;;;8.67;80.85;102543.66;5031118;28;20048;-69
2023/05/30 01:38:20;;;;;;;9.15;2.88;;;;;;;8.68;81.38;102551.78;5012033;28;20030;-69
2023/05/30 01:40:53;;;;;;;11.70;3.00;;;;;;;8.65;81.96;102556.41;5011189;28;20041;-69
2023/05/30 01:43:32;;;;;;;18.95;2.85;;;;;;;8.63;82.37;102567.34;5016428;28;20033;-69
2023/05/30 01:46:32;;;;;;;16.20;3.15;;;;;;;8.61;81.27;102562.91;5030221;28;20037;-69
2023/05/30 01:49:40;;;;;;;12.73;3.28;;;;;;;8.59;82.24;102572.94;5010651;28;20450;-69
2023/05/30 01:52:17;;;;;;;14.07;3.72;;;;;;;8.55;83.08;102571.28;5021096;28;20347;-69
2023/05/30 01:54:47;;;;;;;23.35;3.78;;;;;;;8.50;83.18;102570.56;5010555;28;20029;-69
2023/05/30 01:57:16;;;;;;;10.07;2.72;;;;;;;8.46;82.73;102569.78;5010512;28;20386;-69
2023/05/30 01:59:43;;;;;;;12.75;2.60;;;;;;;8.43;83.86;102576.19;5026235;28;20025;-69
2023/05/30 02:02:09;;;;;;;15.00;3.45;;;;;;;8.41;84.48;102579.91;5028926;28;20310;-69
2023/05/30 02:04:35;;;;;;;13.18;3.75;;;;;;;8.38;84.34;102582.72;5029998;28;20071;-69
2023/05/30 02:07:02;;;;;;;12.20;3.50;;;;;;;8.33;84.98;102579.25;5027860;28;20034;-68
2023/05/30 02:09:27;;;;;;;14.05;4.82;;;;;;;8.31;84.61;102581.13;5031241;28;20493;-68
2023/05/30 02:11:53;;;;;;;14.02;3.30;;;;;;;8.30;84.62;102582.97;5017262;28;20025;-69
2023/05/30 02:14:24;;;;;;;16.90;3.40;;;;;;;8.27;84.67;102585.78;5010247;28;20113;-69
2023/05/30 02:16:50;;;;;;;14.10;3.50;;;;;;;8.24;85.63;102596.72;5011035;28;20041;-69
2023/05/30 02:19:17;;;;;;;11.40;4.10;;;;;;;8.23;86.03;102594.06;5008956;28;20069;-69
2023/05/30 02:21:42;;;;;;;18.45;3.72;;;;;;;8.20;85.15;102592.34;5009743;28;20057;-69
2023/05/30 02:24:08;;;;;;;15.43;3.42;;;;;;;8.16;85.47;102591.59;5010948;28;20272;-68
2023/05/30 02:26:36;;;;;;;13.93;3.72;;;;;;;8.16;85.44;102593.41;5010854;28;20037;-69
2023/05/30 02:29:03;;;;;;;16.80;3.38;;;;;;;8.12;86.48;102594.44;5005320;28;20083;-69
2023/05/30 02:31:28;;;;;;;10.48;2.80;;;;;;;8.12;85.74;102597.16;5030684;28;20029;-69
2023/05/30 02:33:53;;;;;;;17.60;4.18;;;;;;;8.12;85.51;102591.75;5014964;28;20049;-69
2023/05/30 02:36:19;;;;;;;13.00;3.33;;;;;;;8.10;86.48;102596.31;5022198;28;20064;-70
2023/05/30 02:38:44;;;;;;;17.48;3.10;;;;;;;8.08;85.80;102593.66;5025402;28;20045;-69
2023/05/30 02:41:11;;;;;;;16.40;3.30;;;;;;;8.06;85.52;102590.09;5023145;28;20476;-69
2023/05/30 02:43:36;;;;;;;10.73;3.33;;;;;;;8.05;85.80;102588.31;5018767;28;20041;-69
2023/05/30 02:46:04;;;;;;;13.25;3.92;;;;;;;8.01;86.37;102592.06;5021343;28;20037;-70
2023/05/30 02:48:30;;;;;;;17.88;3.42;;;;;;;8.00;86.73;102592.13;5020513;28;20156;-69
2023/05/30 02:50:57;;;;;;;12.45;4.50;;;;;;;7.98;86.79;102589.50;5010281;28;20036;-69
2023/05/30 02:53:23;;;;;;;15.65;4.38;;;;;;;7.97;87.07;102592.22;5015784;28;20030;-69
2023/05/30 02:55:50;;;;;;;13.43;3.72;;;;;;;7.95;87.70;102589.59;5020613;28;20030;-69
2023/05/30 02:58:33;;;;;;;19.83;3.88;;;;;;;7.92;87.57;102582.44;5026286;28;20049;-70
2023/05/30 03:01:07;;;;;;;11.52;3.60;;;;;;;7.89;87.39;102579.84;5027929;28;22590;-69
2023/05/30 03:03:34;;;;;;;17.90;3.60;;;;;;;7.88;88.13;102583.50;5018488;28;20112;-69
2023/05/30 03:06:09;;;;;;;12.63;3.75;;;;;;;7.87;87.67;102580.81;5009772;28;20067;-69
2023/05/30 03:08:45;;;;;;;12.25;3.40;;;;;;;7.85;87.77;102580.88;5013264;28;20056;-70
2023/05/30 03:11:12;;;;;;;15.82;4.15;;;;;;;7.82;87.98;102572.84;5020278;28;20034;-69
2023/05/30 03:13:37;;;;;;;16.02;3.63;;;;;;;7.87;87.75;102578.09;5011712;28;20140;-70
2023/05/30 03:16:03;;;;;;;14.32;3.75;;;;;;;7.87;87.79;102586.22;5026690;28;20033;-69
2023/05/30 03:18:29;;;;;;;22.23;4.57;;;;;;;7.86;88.29;102584.47;5021230;28;20332;-69
2023/05/30 03:20:55;;;;;;;10.88;3.47;;;;;;;7.86;88.63;102598.91;5019848;28;20033;-69
2023/05/30 03:23:22;;;;;;;12.73;3.85;;;;;;;7.87;88.57;102600.66;5014867;28;20022;-69
2023/05/30 03:25:48;;;;;;;15.52;4.13;;;;;;;7.86;88.44;102596.19;5019048;28;20040;-69
2023/05/30 03:28:16;;;;;;;9.77;4.47;;;;;;;7.91;88.62;102601.47;5021396;28;20171;-69
2023/05/30 03:31:07;;;;;;;16.65;3.92;;;;;;;7.89;88.53;102603.34;5022928;28;20500;-69
2023/05/30 03:33:32;;;;;;;15.05;4.18;;;;;;;7.91;88.46;102599.63;5025559;28;20037;-69
2023/05/30 03:35:58;;;;;;;18.13;3.95;;;;;;;7.93;88.46;102608.63;5006978;28;20421;-69
2023/05/30 03:38:24;;;;;;;14.88;3.55;;;;;;;7.97;88.77;102611.19;5021829;28;20112;-69
2023/05/30 03:40:50;;;;;;;15.63;3.95;;;;;;;7.99;88.79;102612.06;5013249;28;20030;-69
2023/05/30 03:43:15;;;;;;;11.45;4.07;;;;;;;8.03;88.34;102611.91;5017870;28;20028;-69
2023/05/30 03:45:40;;;;;;;14.82;4.18;;;;;;;8.06;88.77;102613.59;5016564;28;20099;-69
2023/05/30 03:48:06;;;;;;;17.63;4.00;;;;;;;8.12;88.52;102625.16;5024878;28;20147;-69
2023/05/30 03:50:32;;;;;;;12.68;3.30;;;;;;;8.15;88.47;102627.72;5022164;28;20033;-69
2023/05/30 03:52:57;;;;;;;13.13;3.97;;;;;;;8.22;88.46;102627.56;5022251;28;20034;-68
2023/05/30 03:55:22;;;;;;;17.60;4.47;;;;;;;8.26;87.85;102630.09;5019574;28;20135;-69
2023/05/30 03:57:48;;;;;;;18.90;4.15;;;;;;;8.28;88.11;102627.34;5022550;28;20066;-69
2023/05/30 04:00:16;;;;;;;15.85;4.10;;;;;;;8.32;87.99;102631.72;5018585;28;20565;-69
2023/05/30 04:02:41;;;;;;;16.80;4.90;;;;;;;8.34;87.32;102630.69;5016875;28;20149;-69
2023/05/30 04:05:07;;;;;;;17.88;4.28;;;;;;;8.38;87.91;102626.09;5024953;28;20029;-69
2023/05/30 04:07:35;;;;;;;15.45;4.10;;;;;;;8.41;87.82;102626.00;5025014;28;20037;-69
2023/05/30 04:10:05;;;;;;;17.10;4.60;;;;;;;8.43;87.94;102630.41;5009850;28;20445;-70
2023/05/30 04:12:31;;;;;;;15.73;3.80;;;;;;;8.51;87.72;102634.69;5022233;28;20397;-68
2023/05/30 04:14:58;;;;;;;10.68;4.13;;;;;;;8.53;87.77;102625.56;5023935;28;20037;-69
2023/05/30 04:17:23;;;;;;;22.02;4.82;;;;;;;8.56;87.77;102636.31;5026452;28;20029;-69
2023/05/30 04:19:50;;;;;;;10.85;4.22;;;;;;;8.59;88.12;102630.78;5019097;28;20165;-69
2023/05/30 04:22:16;;;;;;;21.30;5.15;;;;;;;8.65;87.95;102630.56;5020692;28;20110;-69
2023/05/30 04:24:43;;;;;;;14.85;4.38;;;;;;;8.68;87.48;102621.44;5020533;28;20065;-69
2023/05/30 04:27:11;;;;;;;20.30;4.57;;;;;;;8.75;87.43;102632.94;5007898;28;20057;-69
2023/05/30 04:29:36;;;;;;;16.67;3.55;;;;;;;8.79;87.52;102626.47;5022301;28;20045;-69
2023/05/30 04:32:04;;;;;;;15.88;4.10;;;;;;;8.85;86.74;102626.22;5022077;28;20044;-69
2023/05/30 04:34:30;;;;;;;16.33;4.70;;;;;;;8.93;86.23;102629.56;5018134;28;20056;-70
2023/05/30 04:36:56;;;;;;;13.82;4.43;;;;;;;8.98;86.85;102627.56;5024912;28;20033;-69
2023/05/30 04:39:22;;;;;;;12.05;4.07;;;;;;;9.01;87.00;102638.31;5019259;28;20116;-69
2023/05/30 04:41:49;;;;;;;20.52;5.65;;;;;;;9.05;86.00;102630.94;5016525;28;20490;-69
2023/05/30 04:44:17;;;;;;;17.33;4.13;;;;;;;9.10;85.66;102632.53;5011201;28;20053;-68
2023/05/30 04:46:46;;;;;;;16.25;4.55;;;;;;;9.14;86.73;102628.78;5013812;28;20042;-69
2023/05/30 04:49:15;;;;;;;16.95;4.07;;;;;;;9.17;85.81;102628.63;5013343;28;20381;-69
2023/05/30 04:51:42;;;;;;;11.10;4.82;;;;;;;9.23;85.56;102623.91;5021383;28;20041;-69
2023/05/30 04:54:08;;;;;;;15.43;4.25;;;;;;;9.23;85.21;102621.19;5018849;28;20072;-69
2023/05/30 04:56:33;;;;;;;19.70;5.05;;;;;;;9.26;85.11;102623.81;5013081;28;20069;-69
2023/05/30 04:58:58;;;;;;;19.60;4.85;;;;;;;9.33;86.03;102622.63;5024048;28;20476;-69
2023/05/30 05:01:24;;;;;;;15.32;4.60;;;;;;;9.38;85.23;102618.78;5011745;28;20103;-69
2023/05/30 05:03:50;;;;;;;14.77;4.88;;;;;;;9.47;84.52;102624.81;5018592;28;20033;-70
2023/05/30 05:06:16;;;;;;;14.68;4.75;;;;;;;9.50;84.33;102628.28;5022082;28;20049;-69
2023/05/30 05:08:41;;;;;;;10.38;4.65;;;;;;;9.58;83.93;102628.88;5023224;28;20030;-70
2023/05/30 05:11:07;;;;;;;18.10;5.00;;;;;;;9.59;83.63;102624.31;5013065;28;20057;-69
2023/05/30 05:13:33;;;;;;;13.93;3.70;;;;;;;9.61;83.14;102631.47;5016724;28;20045;-69
2023/05/30 05:15:59;;;;;;;15.35;4.18;;;;;;;9.65;83.72;102622.25;5012472;28;20489;-69
2023/05/30 05:18:25;;;;;;;25.15;4.57;;;;;;;9.71;82.74;102626.56;5010980;28;20121;-68
2023/05/30 05:20:50;;;;;;;22.90;4.55;;;;;;;9.81;82.80;102624.34;5017129;28;20175;-69
2023/05/30 05:23:16;;;;;;;18.30;4.80;;;;;;;9.92;82.08;102622.06;5017629;28;20615;-69
2023/05/30 05:25:41;;;;;;;14.05;4.05;;;;;;;10.03;83.04;102625.22;5015703;28;20030;-69
2023/05/30 05:28:07;;;;;;;16.90;4.47;;;;;;;10.09;82.42;102624.97;5015434;28;20053;-69
2023/05/30 05:30:32;;;;;;;18.88;4.25;;;;;;;10.18;82.39;102631.84;5013814;28;20490;-69
2023/05/30 05:32:58;;;;;;;12.15;4.57;;;;;;;10.20;81.41;102629.94;5024946;28;20501;-69
2023/05/30 05:35:23;;;;;;;14.15;5.25;;;;;;;10.23;80.94;102628.00;5012036;28;20494;-69
2023/05/30 05:37:49;;;;;;;16.15;5.10;;;;;;;10.28;80.42;102636.00;5022546;28;20046;-69
2023/05/30 05:40:15;;;;;;;19.40;5.00;;;;;;;10.31;80.48;102630.44;5008577;28;20375;-69
2023/05/30 05:42:42;;;;;;;13.07;4.30;;;;;;;10.34;81.61;102633.00;5014471;28;20033;-69
2023/05/30 05:45:08;;;;;;;13.68;5.75;;;;;;;10.37;80.47;102629.28;5013248;28;20037;-68
2023/05/30 05:47:33;;;;;;;17.95;6.35;;;;;;;10.42;79.66;102628.13;5020372;28;20579;-69
2023/05/30 05:49:59;;;;;;;20.73;5.05;;;;;;;10.48;79.65;102627.84;5030498;28;20037;-68
2023/05/30 05:52:25;;;;;;;14.50;4.28;;;;;;;10.54;79.78;102628.53;5012048;28;20014;-68
2023/05/30 05:54:50;;;;;;;28.38;6.35;;;;;;;10.54;78.93;102623.06;5012398;28;20125;-69
2023/05/30 05:57:15;;;;;;;14.65;5.38;;;;;;;10.57;79.32;102636.56;5027136;28;20029;-69
2023/05/30 05:59:41;;;;;;;16.27;4.97;;;;;;;10.59;79.56;102637.41;5013797;28;20034;-69
2023/05/30 06:02:06;;;;;;;13.05;4.60;;;;;;;10.63;78.52;102634.47;5009712;28;20022;-69
2023/05/30 06:04:32;;;;;;;12.75;5.18;;;;;;;10.65;78.80;102637.13;5011224;28;20037;-69
2023/05/30 06:06:58;;;;;;;17.33;4.95;;;;;;;10.71;79.26;102648.59;5008733;28;20049;-69
2023/05/30 06:09:30;;;;;;;14.77;4.55;;;;;;;10.81;77.82;102634.59;5010959;28;20451;-69
2023/05/30 06:11:59;;;;;;;13.32;5.00;;;;;;;10.88;77.47;102636.97;5011089;28;20044;-70
2023/05/30 06:14:25;;;;;;;11.93;4.63;;;;;;;10.96;77.73;102645.69;5009164;28;20355;-69
2023/05/30 06:16:50;;;;;;;12.98;4.57;;;;;;;10.95;76.68;102645.75;5010382;28;20045;-69
2023/05/30 06:19:15;;;;;;;13.38;5.22;;;;;;;10.87;76.15;102642.50;5023392;28;20045;-69
2023/05/30 06:21:41;;;;;;;16.88;5.80;;;;;;;10.88;77.31;102642.44;5010857;28;20028;-70
2023/05/30 06:24:06;;;;;;;15.70;4.93;;;;;;;11.03;77.23;102642.69;5009184;28;20064;-69
2023/05/30 06:26:32;;;;;;;10.35;5.05;;;;;;;11.11;75.87;102637.78;5009648;28;20085;-69
2023/05/30 06:28:58;;;;;;;12.45;5.47;;;;;;;11.19;76.89;102631.03;5010184;28;20125;-69
2023/05/30 06:31:23;;;;;;;11.30;5.45;;;;;;;11.21;76.14;102648.16;5010321;28;20108;-69
2023/05/30 06:33:49;;;;;;;12.27;5.53;;;;;;;11.19;75.64;102644.66;5010720;28;20117;-69
2023/05/30 06:36:14;;;;;;;14.85;5.40;;;;;;;11.26;76.52;102641.63;5010814;28;20466;-69
2023/05/30 06:38:40;;;;;;;10.40;4.53;;;;;;;11.35;75.55;102641.19;5010534;28;20057;-69
2023/05/30 06:41:05;;;;;;;13.10;4.90;;;;;;;11.39;75.06;102637.38;5010538;28;20022;-69
2023/05/30 06:43:31;;;;;;;14.80;5.10;;;;;;;11.50;74.56;102644.06;5010719;28;20482;-69
2023/05/30 06:45:56;;;;;;;13.38;4.75;;;;;;;11.46;73.11;102639.72;5010701;28;20374;-69
2023/05/30 06:48:21;;;;;;;16.98;5.82;;;;;;;11.50;74.24;102633.16;5021867;28;20029;-69
2023/05/30 06:50:47;;;;;;;14.50;4.55;;;;;;;11.62;72.91;102642.63;5021833;28;20029;-69
2023/05/30 06:53:12;;;;;;;10.98;4.95;;;;;;;11.71;72.66;102652.19;5009139;28;20100;-70
2023/05/30 06:55:37;;;;;;;17.33;5.80;;;;;;;11.72;72.52;102649.38;5008221;28;20263;-70
2023/05/30 06:58:05;;;;;;;10.23;5.22;;;;;;;11.72;72.58;102646.66;5010352;28;20570;-69
2023/05/30 07:00:31;;;;;;;19.85;6.45;;;;;;;11.71;71.45;102654.94;5010051;28;20042;-69
2023/05/30 07:02:56;;;;;;;14.73;4.63;;;;;;;11.64;71.85;102646.13;5009990;28;20531;-69
2023/05/30 07:05:21;;;;;;;15.65;5.22;;;;;;;11.74;73.85;102652.03;5009205;28;20037;-69
2023/05/30 07:07:47;;;;;;;10.75;5.18;;;;;;;11.94;72.43;102649.28;5015815;28;20034;-70
2023/05/30 07:10:12;;;;;;;7.45;4.40;;;;;;;12.06;71.55;102655.94;5009211;28;20095;-69
2023/05/30 07:12:38;;;;;;;18.17;5.60;;;;;;;12.18;72.49;102654.47;5009585;28;20248;-70
2023/05/30 07:15:05;;;;;;;14.45;4.88;;;;;;;12.55;72.82;102658.06;5023834;28;20041;-69
2023/05/30 07:17:31;;;;;;;8.68;4.75;;;;;;;13.01;71.54;102642.84;5012208;28;20044;-69
2023/05/30 07:19:56;;;;;;;12.20;5.15;;;;;;;13.35;68.68;102652.84;5009387;28;20046;-69
2023/05/30 07:22:21;;;;;;;13.60;5.18;;;;;;;13.65;67.59;102657.56;5008880;28;20339;-69
2023/05/30 07:24:47;;;;;;;14.00;5.40;;;;;;;13.76;66.96;102658.75;5010248;28;20137;-69
2023/05/30 07:27:12;;;;;;;10.40;5.13;;;;;;;13.67;65.59;102663.84;5012561;28;20034;-69
2023/05/30 07:29:38;;;;;;;17.02;4.97;;;;;;;13.48;65.57;102659.41;5024468;28;20328;-69
2023/05/30 07:32:03;;;;;;;11.48;4.70;;;;;;;13.37;65.68;102660.94;5020344;28;20398;-69
2023/05/30 07:34:29;;;;;;;10.05;5.05;;;;;;;13.25;69.15;102668.88;5008118;28;20517;-70
2023/05/30 07:36:54;;;;;;;11.70;4.63;;;;;;;13.23;67.59;102667.19;5009467;28;20109;-70
2023/05/30 07:39:20;;;;;;;15.98;5.55;;;;;;;13.08;67.39;102673.44;5008420;28;20073;-69
2023/05/30 07:41:45;;;;;;;11.40;4.75;;;;;;;13.09;67.56;102667.00;5009755;28;20042;-69
2023/05/30 07:44:11;;;;;;;16.98;5.63;;;;;;;13.33;66.98;102671.16;5009349;28;20363;-69
2023/05/30 07:46:36;;;;;;;9.75;4.70;;;;;;;13.38;66.11;102668.19;5009312;28;20042;-69
2023/05/30 07:49:02;;;;;;;12.93;4.55;;;;;;;13.25;65.70;102676.19;5021560;28;20037;-69
2023/05/30 07:51:27;;;;;;;13.40;5.32;;;;;;;13.12;65.68;102673.19;5009356;28;20029;-69
2023/05/30 07:53:53;;;;;;;13.52;6.05;;;;;;;12.92;67.94;102668.81;5009296;28;20520;-69
2023/05/30 07:56:18;;;;;;;14.70;5.32;;;;;;;12.84;66.94;102667.44;5022693;28;20036;-69
2023/05/30 07:58:44;;;;;;;15.57;5.15;;;;;;;12.92;67.27;102663.34;5009250;28;20041;-69
2023/05/30 08:01:09;;;;;;;10.52;5.07;;;;;;;13.24;66.31;102658.91;5009088;28;20033;-68
2023/05/30 08:03:34;;;;;;;11.68;5.22;;;;;;;13.64;65.81;102653.06;5008024;28;20034;-69
2023/05/30 08:06:00;;;;;;;12.60;4.90;;;;;;;14.02;66.66;102653.59;5009281;28;20479;-69
2023/05/30 08:08:25;;;;;;;15.40;4.32;;;;;;;14.27;64.20;102656.69;5008493;28;20040;-69
2023/05/30 08:10:51;;;;;;;20.30;5.82;;;;;;;14.02;63.05;102649.00;5009086;28;20746;-68
2023/05/30 08:13:18;;;;;;;11.35;5.30;;;;;;;14.02;63.27;102650.88;5009465;28;20481;-69
2023/05/30 08:15:44;;;;;;;13.88;5.30;;;;;;;14.18;62.96;102646.28;5009181;28;20088;-69
2023/05/30 08:18:10;;;;;;;10.80;4.70;;;;;;;14.42;63.88;102646.66;5009333;28;20150;-69
2023/05/30 08:20:36;;;;;;;14.20;4.85;;;;;;;14.62;62.39;102647.34;5008864;28;20124;-69
2023/05/30 08:23:03;;;;;;;9.25;4.55;;;;;;;15.12;62.07;102654.31;5009108;28;20041;-69
2023/05/30 08:25:32;;;;;;;10.85;5.28;;;;;;;15.32;61.61;102638.34;5008598;28;20427;-69
2023/05/30 08:27:59;;;;;;;8.77;5.28;;;;;;;15.11;58.04;102647.97;5008495;28;20383;-68
2023/05/30 08:30:25;;;;;;;13.80;4.93;;;;;;;15.17;59.42;102652.16;5008703;28;20040;-69
2023/05/30 08:32:50;;;;;;;8.48;5.07;;;;;;;15.57;60.43;102643.16;5012948;28;20033;-69
2023/05/30 08:35:16;;;;;;;10.18;5.20;;;;;;;16.17;59.75;102641.97;5013680;28;20129;-70
2023/05/30 08:37:41;;;;;;;8.23;4.80;;;;;;;16.70;58.12;102647.53;5008439;28;20030;-69
2023/05/30 08:40:12;;;;;;;11.75;4.93;;;;;;;16.70;56.17;102636.53;5008297;28;20026;-69
2023/05/30 08:42:38;;;;;;;11.65;5.47;;;;;;;16.50;55.84;102633.28;5008879;28;20068;-69
2023/05/30 08:45:05;;;;;;;15.43;5.60;;;;;;;16.17;55.59;102630.97;5008961;28;20429;-69
2023/05/30 08:47:31;;;;;;;13.02;5.70;;;;;;;16.03;55.43;102637.41;5007006;28;20034;-69
2023/05/30 08:50:01;;;;;;;13.63;5.07;;;;;;;15.79;55.87;102639.03;5008446;28;20445;-69
2023/05/30 08:52:28;;;;;;;10.88;5.07;;;;;;;16.46;57.46;102628.09;5023241;28;20406;-69
2023/05/30 08:55:09;;;;;;;11.07;5.10;;;;;;;16.49;54.74;102628.78;5007165;28;20334;-69
2023/05/30 08:57:47;;;;;;;12.63;5.43;;;;;;;16.36;55.75;102635.22;5007509;28;20049;-69
2023/05/30 09:00:15;;;;;;;12.95;6.05;;;;;;;16.63;55.79;102629.69;5017472;28;20045;-69
2023/05/30 09:02:44;;;;;;;17.95;5.65;;;;;;;17.23;57.25;102621.75;5007461;28;20022;-69
2023/05/30 09:05:15;;;;;;;12.55;5.82;;;;;;;17.43;53.22;102622.16;5007334;28;20046;-69
2023/05/30 09:07:42;;;;;;;12.73;5.28;;;;;;;17.57;55.94;102619.28;5008310;28;20052;-68
2023/05/30 09:10:09;;;;;;;10.70;5.40;;;;;;;17.71;50.60;102616.38;5008217;28;20267;-69
2023/05/30 09:12:35;;;;;;;16.02;5.82;;;;;;;17.67;51.51;102622.22;5008316;28;20094;-68
2023/05/30 09:15:00;;;;;;;12.25;6.22;;;;;;;17.98;53.06;102612.59;5027765;28;20038;-69
2023/05/30 09:17:27;;;;;;;13.52;5.35;;;;;;;17.78;51.63;102616.84;5032301;28;20029;-69
2023/05/30 09:19:53;;;;;;;17.30;5.95;;;;;;;17.28;51.13;102615.91;5014262;28;20049;-69
2023/05/30 09:22:19;;;;;;;14.50;5.35;;;;;;;17.29;52.73;102610.28;5012436;28;20029;-69
2023/05/30 09:25:01;;;;;;;14.88;5.80;;;;;;;17.37;52.62;102609.75;5012669;28;20387;-69
2023/05/30 09:27:31;;;;;;;13.17;6.53;;;;;;;18.02;54.81;102605.84;5011829;28;20041;-69
2023/05/30 09:29:56;;;;;;;14.43;5.93;;;;;;;18.15;50.53;102601.19;5012208;28;20304;-69
2023/05/30 09:32:34;;;;;;;15.85;5.85;;;;;;;18.38;53.45;102604.03;5011031;28;20102;-69
2023/05/30 09:35:04;;;;;;;10.50;5.88;;;;;;;18.66;51.22;102614.66;5011972;28;20127;-68
2023/05/30 09:37:37;;;;;;;14.48;5.78;;;;;;;18.46;51.21;102599.66;5012096;28;20040;-69
2023/05/30 09:40:02;;;;;;;;;;;;;;;18.51;53.30;102605.72;5011384;28;20105;-70
2023/05/30 09:42:38;;;;;;;13.50;5.75;;;;;;;18.40;53.87;102593.75;5011863;28;20258;-70
2023/05/30 09:45:15;;;;;;;11.93;5.70;;;;;;;18.93;53.60;102596.94;5012049;28;20498;-69
2023/05/30 09:47:45;;;;;;;17.48;5.90;;;;;;;18.96;49.17;102596.72;5013394;28;20042;-69
2023/05/30 09:50:13;;;;;;;16.63;5.80;;;;;;;19.37;49.97;102588.72;5018693;28;20064;-70
2023/05/30 09:52:40;;;;;;;12.60;6.00;;;;;;;19.35;47.17;102598.09;5011885;28;20293;-69
2023/05/30 09:55:06;;;;;;;11.40;5.93;;;;;;;19.59;51.63;102593.34;5011810;28;20044;-69
2023/05/30 09:57:37;;;;;;;9.88;5.00;;;;;;;19.81;52.18;102591.56;5011488;28;20422;-69
2023/05/30 10:00:10;;;;;;;13.63;6.90;;;;;;;19.52;48.43;102591.22;5027892;28;20045;-69
2023/05/30 10:02:41;;;;;;;13.63;6.63;;;;;;;18.95;46.96;102595.84;5031753;28;20041;-69
2023/05/30 10:05:23;;;;;;;11.43;6.95;;;;;;;18.93;51.50;102586.81;5031539;28;20512;-70
2023/05/30 10:07:52;;;;;;;13.18;6.47;;;;;;;18.95;51.54;102587.56;5013651;28;20052;-69
2023/05/30 10:10:19;;;;;;;14.02;6.35;;;;;;;19.44;50.53;102569.75;5010604;28;20026;-69
2023/05/30 10:12:48;;;;;;;7.72;5.05;;;;;;;19.82;47.21;102580.41;5010398;28;20038;-70
2023/05/30 10:15:14;;;;;;;15.20;6.15;;;;;;;19.59;48.46;102578.66;5010658;28;20025;-69
2023/05/30 10:17:46;;;;;;;11.90;7.28;;;;;;;19.12;47.16;102583.47;5011546;28;20492;-69
2023/05/30 10:20:13;;;;;;;12.57;6.13;;;;;;;18.99;47.04;102580.81;5011080;28;20044;-70
2023/05/30 10:22:43;;;;;;;14.70;6.65;;;;;;;19.19;47.74;102578.31;5011321;28;20100;-69
2023/05/30 10:25:09;;;;;;;14.63;6.70;;;;;;;19.53;47.85;102581.91;5011129;28;20290;-69
2023/05/30 10:27:43;;;;;;;17.70;6.47;;;;;;;19.75;49.62;102572.75;5010347;28;20109;-69
2023/05/30 10:30:11;;;;;;;14.35;6.47;;;;;;;20.00;45.11;102568.78;5011538;28;20241;-69
2023/05/30 10:32:40;;;;;;;17.27;6.75;;;;;;;20.18;50.91;102574.63;5011410;28;20450;-69
2023/05/30 10:35:10;;;;;;;12.23;6.32;;;;;;;19.71;45.87;102582.31;5010879;28;20061;-70
2023/05/30 10:37:37;;;;;;;12.35;6.32;;;;;;;19.35;46.53;102573.28;5011206;28;20125;-69
2023/05/30 10:40:11;;;;;;;15.23;6.47;;;;;;;19.91;49.65;102564.06;5011217;28;20049;-69
2023/05/30 10:43:11;;;;;;;12.98;5.75;;;;;;;20.81;50.60;102568.19;5009668;28;20065;-69
2023/05/30 10:46:07;;;;;;;12.85;6.03;;;;;;;20.63;44.75;102564.28;5030809;28;20546;-69
2023/05/30 10:49:06;;;;;;;10.65;5.68;;;;;;;20.38;46.42;102560.88;5029313;28;20034;-69
2023/05/30 10:52:01;;;;;;;15.90;5.75;;;;;;;20.36;46.50;102559.22;5030738;28;20033;-69
2023/05/30 10:54:31;;;;;;;16.08;6.95;;;;;;;19.99;44.98;102565.16;5010858;28;20053;-68
2023/05/30 10:57:05;;;;;;;11.68;5.60;;;;;;;20.43;48.08;102552.19;5010304;28;20109;-70
2023/05/30 10:59:30;;;;;;;15.35;6.15;;;;;;;20.79;47.44;102548.06;5010801;28;20439;-69
2023/05/30 11:02:04;;;;;;;14.57;6.05;;;;;;;20.69;44.60;102547.13;5010645;28;20038;-69
2023/05/30 11:04:35;;;;;;;13.85;5.50;;;;;;;20.34;43.83;102553.84;5010589;28;20523;-69
2023/05/30 11:07:04;;;;;;;13.45;5.88;;;;;;;20.55;47.97;102539.19;5010629;28;20454;-69
2023/05/30 11:09:29;;;;;;;11.65;5.60;;;;;;;21.14;46.93;102539.38;5009096;28;20026;-69
2023/05/30 11:11:58;;;;;;;11.98;5.95;;;;;;;21.56;45.68;102532.88;5010245;28;20060;-69
2023/05/30 11:14:28;;;;;;;14.65;6.38;;;;;;;21.68;43.52;102540.00;5010062;28;20521;-69
2023/05/30 11:16:53;;;;;;;13.27;5.75;;;;;;;21.47;44.19;102533.72;5010230;28;20034;-69
2023/05/30 11:19:20;;;;;;;12.70;5.82;;;;;;;21.48;45.15;102532.69;5010550;28;20173;-70
2023/05/30 11:22:00;;;;;;;15.70;6.43;;;;;;;21.14;42.14;102531.06;5009239;28;20727;-68
2023/05/30 11:24:27;;;;;;;14.90;6.03;;;;;;;21.25;49.72;102527.31;5023310;28;20041;-70
2023/05/30 11:26:58;;;;;;;14.32;6.43;;;;;;;21.79;45.94;102514.97;5019463;28;20041;-70